sensor_id;sensor_type;location;lat;lon;timestamp;pressure;altitude;pressure_sealevel;temperature;humidity
69316;BME280;56445;43.552;5.034;2023-07-13T07:40:00;101527.25;;;41.45;22.81
69316;BME280;56445;43.552;5.034;2023-07-13T07:42:34;101513.94;;;41.46;22.38
69316;BME280;56445;43.552;5.034;2023-07-13T07:52:37;101524.44;;;41.67;22.45
69316;BME280;56445;43.552;5.034;2023-07-13T07:55:11;101545.88;;;41.86;22.40
69316;BME280;56445;43.552;5.034;2023-07-13T07:58:01;101515.56;;;41.72;22.21
69316;BME280;56445;43.552;5.034;2023-07-13T08:00:51;101555.59;;;41.88;22.22
69316;BME280;56445;43.552;5.034;2023-07-13T08:03:32;101517.59;;;41.71;22.38
69316;BME280;56445;43.552;5.034;2023-07-13T08:13:34;101526.47;;;41.77;22.22
69316;BME280;56445;43.552;5.034;2023-07-13T08:24:58;101501.38;;;41.72;22.31
69316;BME280;56445;43.552;5.034;2023-07-13T08:38:24;101525.56;;;42.19;22.44
69316;BME280;56445;43.552;5.034;2023-07-13T08:41:25;101532.88;;;42.20;22.05
69316;BME280;56445;43.552;5.034;2023-07-13T08:44:07;101521.59;;;42.03;22.41
69316;BME280;56445;43.552;5.034;2023-07-13T08:46:51;101529.25;;;42.16;22.18
69316;BME280;56445;43.552;5.034;2023-07-13T08:52:43;101551.88;;;42.34;22.42
69316;BME280;56445;43.552;5.034;2023-07-13T08:59:39;101536.06;;;42.37;22.32
69316;BME280;56445;43.552;5.034;2023-07-13T09:05:59;101548.22;;;42.45;22.46
69316;BME280;56445;43.552;5.034;2023-07-13T09:08:52;101554.66;;;42.42;21.95
69316;BME280;56445;43.552;5.034;2023-07-13T09:11:47;101555.91;;;42.40;22.02
69316;BME280;56445;43.552;5.034;2023-07-13T09:14:47;101556.28;;;42.39;22.09
69316;BME280;56445;43.552;5.034;2023-07-13T09:17:59;101549.00;;;42.49;22.00
69316;BME280;56445;43.552;5.034;2023-07-13T09:24:00;101559.50;;;42.55;21.99
69316;BME280;56445;43.552;5.034;2023-07-13T09:26:39;101527.50;;;42.51;21.66
69316;BME280;56445;43.552;5.034;2023-07-13T09:32:57;101548.03;;;42.73;21.64
69316;BME280;56445;43.552;5.034;2023-07-13T09:35:27;101525.44;;;42.63;22.06
69316;BME280;56445;43.552;5.034;2023-07-13T09:38:15;101546.00;;;42.77;21.78
69316;BME280;56445;43.552;5.034;2023-07-13T09:44:14;101524.56;;;42.69;21.87
69316;BME280;56445;43.552;5.034;2023-07-13T09:50:54;101567.31;;;43.11;21.86
69316;BME280;56445;43.552;5.034;2023-07-13T09:53:31;101555.91;;;43.22;21.48
69316;BME280;56445;43.552;5.034;2023-07-13T09:56:25;101530.00;;;43.09;21.61
69316;BME280;56445;43.552;5.034;2023-07-13T09:59:01;101550.56;;;43.31;21.54
69316;BME280;56445;43.552;5.034;2023-07-13T10:01:47;101529.03;;;43.37;21.51
69316;BME280;56445;43.552;5.034;2023-07-13T10:04:26;101558.06;;;43.59;21.64
69316;BME280;56445;43.552;5.034;2023-07-13T10:07:07;101553.53;;;43.69;21.65
69316;BME280;56445;43.552;5.034;2023-07-13T10:10:00;101556.25;;;43.80;21.38
69316;BME280;56445;43.552;5.034;2023-07-13T10:12:37;101563.06;;;43.89;21.46
69316;BME280;56445;43.552;5.034;2023-07-13T10:15:15;101550.31;;;44.05;21.31
69316;BME280;56445;43.552;5.034;2023-07-13T10:18:14;101537.22;;;44.14;21.52
69316;BME280;56445;43.552;5.034;2023-07-13T10:20:46;101560.81;;;44.46;21.01
69316;BME280;56445;43.552;5.034;2023-07-13T10:23:21;101536.72;;;44.58;21.09
69316;BME280;56445;43.552;5.034;2023-07-13T10:26:21;101528.91;;;44.92;21.23
69316;BME280;56445;43.552;5.034;2023-07-13T10:29:27;101563.75;;;45.55;21.13
69316;BME280;56445;43.552;5.034;2023-07-13T10:32:11;101574.09;;;45.92;21.28
69316;BME280;56445;43.552;5.034;2023-07-13T10:34:52;101570.69;;;46.21;21.25
69316;BME280;56445;43.552;5.034;2023-07-13T10:38:13;101538.13;;;46.38;21.17
69316;BME280;56445;43.552;5.034;2023-07-13T10:41:10;101553.56;;;46.81;21.18
69316;BME280;56445;43.552;5.034;2023-07-13T10:43:51;101544.66;;;46.95;21.12
69316;BME280;56445;43.552;5.034;2023-07-13T10:46:24;101565.66;;;47.21;20.94
69316;BME280;56445;43.552;5.034;2023-07-13T10:49:01;101564.50;;;47.35;20.47
69316;BME280;56445;43.552;5.034;2023-07-13T10:51:31;101542.44;;;47.36;20.70
69316;BME280;56445;43.552;5.034;2023-07-13T10:54:32;101522.50;;;47.48;20.69
69316;BME280;56445;43.552;5.034;2023-07-13T10:57:30;101538.09;;;47.77;20.80
69316;BME280;56445;43.552;5.034;2023-07-13T11:00:20;101558.94;;;47.94;20.61
69316;BME280;56445;43.552;5.034;2023-07-13T11:03:01;101528.53;;;47.83;20.68
69316;BME280;56445;43.552;5.034;2023-07-13T11:21:12;101558.16;;;48.35;19.88
69316;BME280;56445;43.552;5.034;2023-07-13T18:37:22;101388.72;;;44.30;17.53
69316;BME280;56445;43.552;5.034;2023-07-13T18:39:51;101390.66;;;44.37;17.24
69316;BME280;56445;43.552;5.034;2023-07-13T18:42:24;101386.16;;;44.40;17.35
69316;BME280;56445;43.552;5.034;2023-07-13T18:44:54;101409.56;;;44.51;17.42
69316;BME280;56445;43.552;5.034;2023-07-13T18:47:26;101385.84;;;44.34;17.22
69316;BME280;56445;43.552;5.034;2023-07-13T18:49:59;101404.41;;;44.42;17.53
69316;BME280;56445;43.552;5.034;2023-07-13T18:52:26;101412.94;;;44.42;17.38
69316;BME280;56445;43.552;5.034;2023-07-13T18:54:53;101389.69;;;44.20;17.52
69316;BME280;56445;43.552;5.034;2023-07-13T18:57:21;101397.72;;;44.25;17.26
69316;BME280;56445;43.552;5.034;2023-07-13T18:59:53;101418.75;;;44.31;17.56
69316;BME280;56445;43.552;5.034;2023-07-13T19:02:21;101374.03;;;44.05;17.55
69316;BME280;56445;43.552;5.034;2023-07-13T19:04:48;101379.72;;;44.05;17.25
69316;BME280;56445;43.552;5.034;2023-07-13T19:07:16;101400.69;;;44.18;17.21
69316;BME280;56445;43.552;5.034;2023-07-13T19:09:44;101389.47;;;44.04;17.26
69316;BME280;56445;43.552;5.034;2023-07-13T19:12:19;101402.38;;;44.12;17.76
69316;BME280;56445;43.552;5.034;2023-07-13T19:14:49;101380.75;;;43.87;17.21
69316;BME280;56445;43.552;5.034;2023-07-13T19:17:18;101409.75;;;44.06;17.44
69316;BME280;56445;43.552;5.034;2023-07-13T19:19:47;101396.41;;;44.03;17.57
69316;BME280;56445;43.552;5.034;2023-07-13T19:22:16;101375.97;;;43.81;17.12
69316;BME280;56445;43.552;5.034;2023-07-13T19:24:53;101387.19;;;43.91;17.48
69316;BME280;56445;43.552;5.034;2023-07-13T19:27:21;101408.22;;;43.97;17.45
69316;BME280;56445;43.552;5.034;2023-07-13T19:29:48;101371.19;;;43.74;17.58
69316;BME280;56445;43.552;5.034;2023-07-13T19:32:18;101411.94;;;43.94;17.41
69316;BME280;56445;43.552;5.034;2023-07-13T19:34:53;101387.38;;;43.77;17.35
69316;BME280;56445;43.552;5.034;2023-07-13T19:37:23;101409.97;;;43.88;17.27
69316;BME280;56445;43.552;5.034;2023-07-13T19:39:51;101404.44;;;43.77;17.41
69316;BME280;56445;43.552;5.034;2023-07-13T19:42:21;101419.00;;;43.83;17.53
69316;BME280;56445;43.552;5.034;2023-07-13T19:44:51;101398.84;;;43.70;17.28
69316;BME280;56445;43.552;5.034;2023-07-13T19:47:19;101419.88;;;43.76;17.56
69316;BME280;56445;43.552;5.034;2023-07-13T19:49:47;101402.97;;;43.62;17.51
69316;BME280;56445;43.552;5.034;2023-07-13T19:52:20;101421.13;;;43.75;17.27
69316;BME280;56445;43.552;5.034;2023-07-13T19:54:52;101427.63;;;43.72;17.48
69316;BME280;56445;43.552;5.034;2023-07-13T19:57:24;101420.00;;;43.62;17.32
69316;BME280;56445;43.552;5.034;2023-07-13T19:59:52;101407.13;;;43.53;17.24
69316;BME280;56445;43.552;5.034;2023-07-13T20:02:23;101421.25;;;43.61;17.13
69316;BME280;56445;43.552;5.034;2023-07-13T20:04:50;101412.81;;;43.53;17.68
69316;BME280;56445;43.552;5.034;2023-07-13T20:07:21;101431.00;;;43.60;17.13
69316;BME280;56445;43.552;5.034;2023-07-13T20:09:50;101436.59;;;43.67;17.34
69316;BME280;56445;43.552;5.034;2023-07-13T20:12:21;101403.59;;;43.42;17.43
69316;BME280;56445;43.552;5.034;2023-07-13T20:14:50;101408.91;;;43.36;17.08
69316;BME280;56445;43.552;5.034;2023-07-13T20:17:35;101445.22;;;43.56;17.20
69316;BME280;56445;43.552;5.034;2023-07-13T20:20:31;101445.75;;;43.47;17.23
69316;BME280;56445;43.552;5.034;2023-07-13T20:23:00;101428.06;;;43.29;17.60
69316;BME280;56445;43.552;5.034;2023-07-13T20:25:32;101421.19;;;43.23;17.07
69316;BME280;56445;43.552;5.034;2023-07-13T20:28:00;101456.78;;;43.38;17.40
69316;BME280;56445;43.552;5.034;2023-07-13T20:30:35;101431.72;;;43.26;17.25
69316;BME280;56445;43.552;5.034;2023-07-13T20:33:06;101453.94;;;43.38;17.52
69316;BME280;56445;43.552;5.034;2023-07-13T20:35:37;101441.47;;;43.28;17.33
69316;BME280;56445;43.552;5.034;2023-07-13T20:38:04;101445.88;;;43.33;17.53
69316;BME280;56445;43.552;5.034;2023-07-13T20:40:33;101433.78;;;43.22;17.45
69316;BME280;56445;43.552;5.034;2023-07-13T20:43:01;101441.94;;;43.16;17.26
69316;BME280;56445;43.552;5.034;2023-07-13T20:45:29;101422.97;;;43.09;17.58
69316;BME280;56445;43.552;5.034;2023-07-13T20:50:52;101452.16;;;43.10;17.47
69316;BME280;56445;43.552;5.034;2023-07-13T20:53:20;101449.34;;;43.06;17.14
69316;BME280;56445;43.552;5.034;2023-07-13T20:55:49;101421.50;;;42.87;17.08
69316;BME280;56445;43.552;5.034;2023-07-13T20:58:31;101438.50;;;42.94;17.44
69316;BME280;56445;43.552;5.034;2023-07-13T21:00:58;101468.38;;;43.09;17.18
69316;BME280;56445;43.552;5.034;2023-07-13T21:03:27;101472.44;;;43.08;17.39
69316;BME280;56445;43.552;5.034;2023-07-13T21:05:59;101462.34;;;43.04;17.43
69316;BME280;56445;43.552;5.034;2023-07-13T21:08:31;101483.78;;;43.08;17.13
69316;BME280;56445;43.552;5.034;2023-07-13T21:10:59;101479.31;;;43.07;17.32
69316;BME280;56445;43.552;5.034;2023-07-13T21:13:26;101437.34;;;42.81;17.35
69316;BME280;56445;43.552;5.034;2023-07-13T21:15:53;101448.25;;;42.86;17.10
69316;BME280;56445;43.552;5.034;2023-07-13T21:18:22;101446.66;;;42.81;17.23
69316;BME280;56445;43.552;5.034;2023-07-13T21:20:54;101449.88;;;42.83;17.30
69316;BME280;56445;43.552;5.034;2023-07-13T21:23:30;101470.50;;;42.94;17.44
69316;BME280;56445;43.552;5.034;2023-07-13T21:25:59;101466.09;;;42.83;16.88
69316;BME280;56445;43.552;5.034;2023-07-13T21:28:28;101475.00;;;42.92;17.21
69316;BME280;56445;43.552;5.034;2023-07-13T21:31:00;101442.75;;;42.64;16.94
69316;BME280;56445;43.552;5.034;2023-07-13T21:33:28;101450.00;;;42.65;17.38
69316;BME280;56445;43.552;5.034;2023-07-13T21:35:57;101478.25;;;42.83;16.79
69316;BME280;56445;43.552;5.034;2023-07-13T21:38:28;101479.91;;;42.81;17.00
69316;BME280;56445;43.552;5.034;2023-07-13T21:41:02;101463.81;;;42.63;17.12
69316;BME280;56445;43.552;5.034;2023-07-13T21:43:30;101493.75;;;42.71;17.18
69316;BME280;56445;43.552;5.034;2023-07-13T21:45:58;101496.22;;;42.66;16.89
69316;BME280;56445;43.552;5.034;2023-07-13T21:48:25;101492.19;;;42.63;17.30
69316;BME280;56445;43.552;5.034;2023-07-13T21:50:54;101495.06;;;42.56;17.27
69316;BME280;56445;43.552;5.034;2023-07-13T21:53:29;101478.47;;;42.44;17.31
69316;BME280;56445;43.552;5.034;2023-07-13T21:56:01;101493.91;;;42.46;16.92
69316;BME280;56445;43.552;5.034;2023-07-13T21:58:34;101471.63;;;42.34;17.19
69316;BME280;56445;43.552;5.034;2023-07-13T22:01:02;101487.03;;;42.36;17.17
69316;BME280;56445;43.552;5.034;2023-07-13T22:03:34;101497.94;;;42.38;17.39
69316;BME280;56445;43.552;5.034;2023-07-13T22:06:03;101489.09;;;42.29;17.32
69316;BME280;56445;43.552;5.034;2023-07-13T22:08:36;101501.63;;;42.31;16.89
69316;BME280;56445;43.552;5.034;2023-07-13T22:11:16;101477.03;;;42.07;17.27
69316;BME280;56445;43.552;5.034;2023-07-13T22:13:47;101487.56;;;42.06;17.00
69316;BME280;56445;43.552;5.034;2023-07-13T22:16:21;101508.56;;;42.16;16.77
69316;BME280;56445;43.552;5.034;2023-07-13T22:18:50;101479.88;;;41.92;17.13
69316;BME280;56445;43.552;5.034;2023-07-13T22:21:19;101507.38;;;42.10;17.42
69316;BME280;56445;43.552;5.034;2023-07-13T22:23:47;101484.34;;;41.86;16.72
69316;BME280;56445;43.552;5.034;2023-07-13T22:26:27;101511.84;;;42.00;16.97
69316;BME280;56445;43.552;5.034;2023-07-13T22:29:21;101488.41;;;41.78;17.07
69316;BME280;56445;43.552;5.034;2023-07-13T22:31:51;101505.41;;;41.85;16.96
69316;BME280;56445;43.552;5.034;2023-07-13T22:34:20;101493.28;;;41.77;16.93
69316;BME280;56445;43.552;5.034;2023-07-13T22:36:48;101500.56;;;41.75;17.06
69316;BME280;56445;43.552;5.034;2023-07-13T22:39:31;101488.84;;;41.66;16.92
69316;BME280;56445;43.552;5.034;2023-07-13T22:42:00;101505.84;;;41.66;17.00
69316;BME280;56445;43.552;5.034;2023-07-13T22:44:28;101484.38;;;41.54;17.07
69316;BME280;56445;43.552;5.034;2023-07-13T22:46:57;101485.59;;;41.49;16.97
69316;BME280;56445;43.552;5.034;2023-07-13T22:49:29;101477.91;;;41.42;16.83
69316;BME280;56445;43.552;5.034;2023-07-13T22:51:59;101492.47;;;41.48;17.11
69316;BME280;56445;43.552;5.034;2023-07-13T22:54:27;101479.94;;;41.35;17.00
69316;BME280;56445;43.552;5.034;2023-07-13T22:56:54;101482.41;;;41.26;16.91
69316;BME280;56445;43.552;5.034;2023-07-13T22:59:22;101506.63;;;41.41;17.11
69316;BME280;56445;43.552;5.034;2023-07-13T23:01:49;101483.19;;;41.22;16.88
69316;BME280;56445;43.552;5.034;2023-07-13T23:04:28;101510.69;;;41.40;16.88
69316;BME280;56445;43.552;5.034;2023-07-13T23:06:56;101487.25;;;41.18;16.98
69316;BME280;56445;43.552;5.034;2023-07-13T23:09:26;101499.78;;;41.20;17.06
69316;BME280;56445;43.552;5.034;2023-07-13T23:12:11;101494.06;;;41.17;17.00
69316;BME280;56445;43.552;5.034;2023-07-13T23:14:39;101486.00;;;41.08;17.11
69316;BME280;56445;43.552;5.034;2023-07-13T23:17:11;101502.19;;;41.18;16.95
69316;BME280;56445;43.552;5.034;2023-07-13T23:19:45;101470.22;;;40.96;17.19
69316;BME280;56445;43.552;5.034;2023-07-13T23:22:23;101479.09;;;40.95;17.00
69316;BME280;56445;43.552;5.034;2023-07-13T23:24:53;101473.41;;;40.84;17.17
69316;BME280;56445;43.552;5.034;2023-07-13T23:27:20;101475.84;;;40.82;16.91
69316;BME280;56445;43.552;5.034;2023-07-13T23:29:47;101485.97;;;40.87;17.19
69316;BME280;56445;43.552;5.034;2023-07-13T23:32:17;101475.84;;;40.78;16.99
69316;BME280;56445;43.552;5.034;2023-07-13T23:34:44;101493.63;;;40.82;17.16
69316;BME280;56445;43.552;5.034;2023-07-13T23:37:16;101485.13;;;40.75;17.16
69316;BME280;56445;43.552;5.034;2023-07-13T23:39:44;101490.41;;;40.80;16.85
69316;BME280;56445;43.552;5.034;2023-07-13T23:42:14;101468.53;;;40.67;17.27
69316;BME280;56445;43.552;5.034;2023-07-13T23:44:41;101473.38;;;40.70;17.14
69316;BME280;56445;43.552;5.034;2023-07-13T23:47:09;101475.38;;;40.69;17.24
69316;BME280;56445;43.552;5.034;2023-07-13T23:49:36;101485.94;;;40.79;17.53
69316;BME280;56445;43.552;5.034;2023-07-13T23:52:11;101468.91;;;40.65;17.19
69316;BME280;56445;43.552;5.034;2023-07-13T23:54:39;101477.00;;;40.70;17.05
69316;BME280;56445;43.552;5.034;2023-07-13T23:57:08;101475.38;;;40.62;17.02
69316;BME280;56445;43.552;5.034;2023-07-13T23:59:35;101460.38;;;40.54;17.19
